sensor_id;sensor_type;location;lat;lon;timestamp;pressure;altitude;pressure_sealevel;temperature;humidity
72285;BME280;60220;53.552;10.092;2024-02-21T00:00:02;101600.94;;;10.20;100.00
72285;BME280;60220;53.552;10.092;2024-02-21T00:02:32;101593.94;;;10.24;100.00
72285;BME280;60220;53.552;10.092;2024-02-21T00:05:01;101599.91;;;9.80;100.00
72285;BME280;60220;53.552;10.092;2024-02-21T00:07:30;101583.28;;;9.78;100.00
72285;BME280;60220;53.552;10.092;2024-02-21T00:09:58;101589.41;;;9.83;100.00
72285;BME280;60220;53.552;10.092;2024-02-21T00:12:25;101580.72;;;9.97;100.00
72285;BME280;60220;53.552;10.092;2024-02-21T00:14:52;101579.03;;;10.17;100.00
72285;BME280;60220;53.552;10.092;2024-02-21T00:17:19;101584.16;;;9.77;100.00
72285;BME280;60220;53.552;10.092;2024-02-21T00:19:45;101580.72;;;9.90;100.00
72285;BME280;60220;53.552;10.092;2024-02-21T00:22:12;101588.47;;;9.65;100.00
72285;BME280;60220;53.552;10.092;2024-02-21T00:24:41;101583.22;;;9.63;100.00
72285;BME280;60220;53.552;10.092;2024-02-21T00:27:09;101569.34;;;9.93;100.00
72285;BME280;60220;53.552;10.092;2024-02-21T00:29:36;101570.19;;;9.84;100.00
72285;BME280;60220;53.552;10.092;2024-02-21T00:32:05;101561.50;;;10.02;100.00
72285;BME280;60220;53.552;10.092;2024-02-21T00:34:32;101560.59;;;9.80;100.00
72285;BME280;60220;53.552;10.092;2024-02-21T00:37:01;101544.00;;;9.93;100.00
72285;BME280;60220;53.552;10.092;2024-02-21T00:39:27;101543.09;;;9.82;100.00
72285;BME280;60220;53.552;10.092;2024-02-21T00:41:54;101547.53;;;10.14;100.00
72285;BME280;60220;53.552;10.092;2024-02-21T00:44:24;101541.19;;;9.39;100.00
72285;BME280;60220;53.552;10.092;2024-02-21T00:46:51;101544.63;;;9.24;100.00
72285;BME280;60220;53.552;10.092;2024-02-21T00:49:17;101532.44;;;9.38;100.00
72285;BME280;60220;53.552;10.092;2024-02-21T00:51:44;101532.72;;;10.34;100.00
72285;BME280;60220;53.552;10.092;2024-02-21T00:54:11;101523.91;;;9.96;100.00
72285;BME280;60220;53.552;10.092;2024-02-21T00:56:37;101526.50;;;9.83;100.00
72285;BME280;60220;53.552;10.092;2024-02-21T00:59:04;101536.13;;;9.86;100.00
72285;BME280;60220;53.552;10.092;2024-02-21T01:01:35;101531.72;;;9.79;100.00
72285;BME280;60220;53.552;10.092;2024-02-21T01:04:04;101517.75;;;9.97;100.00
72285;BME280;60220;53.552;10.092;2024-02-21T01:06:30;101529.09;;;9.82;100.00
72285;BME280;60220;53.552;10.092;2024-02-21T01:08:57;101516.84;;;9.76;100.00
72285;BME280;60220;53.552;10.092;2024-02-21T01:11:23;101520.31;;;9.60;100.00
72285;BME280;60220;53.552;10.092;2024-02-21T01:13:50;101512.41;;;9.45;100.00
72285;BME280;60220;53.552;10.092;2024-02-21T01:16:17;101512.53;;;9.90;100.00
72285;BME280;60220;53.552;10.092;2024-02-21T01:18:45;101500.25;;;9.77;100.00
72285;BME280;60220;53.552;10.092;2024-02-21T01:21:12;101499.38;;;9.66;100.00
72285;BME280;60220;53.552;10.092;2024-02-21T01:23:38;101496.66;;;9.48;100.00
72285;BME280;60220;53.552;10.092;2024-02-21T01:26:05;101492.41;;;9.88;100.00
72285;BME280;60220;53.552;10.092;2024-02-21T01:28:33;101499.47;;;10.16;100.00
72285;BME280;60220;53.552;10.092;2024-02-21T01:31:00;101498.53;;;10.07;100.00
72285;BME280;60220;53.552;10.092;2024-02-21T01:33:26;101488.03;;;9.91;100.00
72285;BME280;60220;53.552;10.092;2024-02-21T01:35:57;101487.19;;;9.99;100.00
72285;BME280;60220;53.552;10.092;2024-02-21T01:38:23;101487.16;;;9.80;100.00
72285;BME280;60220;53.552;10.092;2024-02-21T01:40:50;101481.06;;;10.12;100.00
72285;BME280;60220;53.552;10.092;2024-02-21T01:43:20;101483.59;;;9.57;100.00
72285;BME280;60220;53.552;10.092;2024-02-21T01:45:49;101478.28;;;9.33;100.00
72285;BME280;60220;53.552;10.092;2024-02-21T01:48:17;101474.94;;;9.88;100.00
72285;BME280;60220;53.552;10.092;2024-02-21T01:50:44;101460.06;;;9.87;100.00
72285;BME280;60220;53.552;10.092;2024-02-21T01:53:17;101457.38;;;9.57;100.00
72285;BME280;60220;53.552;10.092;2024-02-21T01:55:45;101452.06;;;9.28;100.00
72285;BME280;60220;53.552;10.092;2024-02-21T01:58:12;101447.75;;;9.47;100.00
72285;BME280;60220;53.552;10.092;2024-02-21T02:00:43;101444.00;;;8.83;100.00
72285;BME280;60220;53.552;10.092;2024-02-21T02:03:10;101443.38;;;9.44;100.00
72285;BME280;60220;53.552;10.092;2024-02-21T02:05:43;101437.34;;;9.71;100.00
72285;BME280;60220;53.552;10.092;2024-02-21T02:08:09;101430.28;;;9.49;100.00
72285;BME280;60220;53.552;10.092;2024-02-21T02:10:40;101418.09;;;9.78;100.00
72285;BME280;60220;53.552;10.092;2024-02-21T02:13:07;101402.31;;;9.39;100.00
72285;BME280;60220;53.552;10.092;2024-02-21T02:15:39;101403.03;;;8.97;100.00
72285;BME280;60220;53.552;10.092;2024-02-21T02:18:06;101398.84;;;9.46;100.00
72285;BME280;60220;53.552;10.092;2024-02-21T02:20:33;101401.50;;;9.61;100.00
72285;BME280;60220;53.552;10.092;2024-02-21T02:23:07;101382.25;;;9.50;100.00
72285;BME280;60220;53.552;10.092;2024-02-21T02:25:39;101363.72;;;8.82;100.00
72285;BME280;60220;53.552;10.092;2024-02-21T02:28:08;101353.38;;;9.23;100.00
72285;BME280;60220;53.552;10.092;2024-02-21T02:30:35;101339.28;;;8.78;100.00
72285;BME280;60220;53.552;10.092;2024-02-21T02:33:03;101337.59;;;8.95;100.00
72285;BME280;60220;53.552;10.092;2024-02-21T02:35:29;101332.31;;;8.85;100.00
72285;BME280;60220;53.552;10.092;2024-02-21T02:37:59;101310.50;;;8.83;100.00
72285;BME280;60220;53.552;10.092;2024-02-21T02:40:25;101285.25;;;9.04;100.00
72285;BME280;60220;53.552;10.092;2024-02-21T02:42:53;101299.25;;;9.16;100.00
72285;BME280;60220;53.552;10.092;2024-02-21T02:45:21;101304.47;;;9.19;100.00
72285;BME280;60220;53.552;10.092;2024-02-21T02:47:48;101309.75;;;9.40;100.00
72285;BME280;60220;53.552;10.092;2024-02-21T02:50:15;101301.00;;;9.15;100.00
72285;BME280;60220;53.552;10.092;2024-02-21T02:52:42;101298.38;;;9.48;100.00
72285;BME280;60220;53.552;10.092;2024-02-21T02:55:08;101310.63;;;9.60;100.00
72285;BME280;60220;53.552;10.092;2024-02-21T02:57:35;101313.25;;;9.63;100.00
72285;BME280;60220;53.552;10.092;2024-02-21T03:00:07;101330.72;;;9.75;100.00
72285;BME280;60220;53.552;10.092;2024-02-21T03:02:34;101331.56;;;9.77;100.00
72285;BME280;60220;53.552;10.092;2024-02-21T03:05:01;101333.31;;;9.87;100.00
72285;BME280;60220;53.552;10.092;2024-02-21T03:07:37;101334.19;;;9.72;100.00
72285;BME280;60220;53.552;10.092;2024-02-21T03:10:04;101331.56;;;10.00;100.00
72285;BME280;60220;53.552;10.092;2024-02-21T03:12:31;101342.94;;;9.62;100.00
72285;BME280;60220;53.552;10.092;2024-02-21T03:15:00;101340.31;;;10.09;100.00
72285;BME280;60220;53.552;10.092;2024-02-21T03:17:28;101344.69;;;10.30;100.00
72285;BME280;60220;53.552;10.092;2024-02-21T03:19:55;101347.28;;;10.13;100.00
72285;BME280;60220;53.552;10.092;2024-02-21T03:22:22;101341.19;;;9.91;100.00
72285;BME280;60220;53.552;10.092;2024-02-21T03:24:49;101345.56;;;9.85;100.00
72285;BME280;60220;53.552;10.092;2024-02-21T03:27:15;101336.81;;;9.81;100.00
72285;BME280;60220;53.552;10.092;2024-02-21T03:29:44;101338.53;;;10.08;100.00
72285;BME280;60220;53.552;10.092;2024-02-21T03:32:11;101342.94;;;10.11;100.00
72285;BME280;60220;53.552;10.092;2024-02-21T03:34:39;101346.44;;;10.10;100.00
72285;BME280;60220;53.552;10.092;2024-02-21T03:37:06;101341.19;;;9.88;100.00
72285;BME280;60220;53.552;10.092;2024-02-21T03:39:35;101341.19;;;9.91;100.00
72285;BME280;60220;53.552;10.092;2024-02-21T03:42:05;101342.94;;;9.96;100.00
72285;BME280;60220;53.552;10.092;2024-02-21T03:44:32;101337.66;;;10.02;100.00
72285;BME280;60220;53.552;10.092;2024-02-21T03:47:01;101342.06;;;10.25;100.00
72285;BME280;60220;53.552;10.092;2024-02-21T03:49:28;101342.91;;;10.14;100.00
72285;BME280;60220;53.552;10.092;2024-02-21T03:51:58;101345.56;;;10.00;100.00
72285;BME280;60220;53.552;10.092;2024-02-21T03:54:25;101337.69;;;10.23;100.00
72285;BME280;60220;53.552;10.092;2024-02-21T03:56:51;101335.94;;;9.67;100.00
72285;BME280;60220;53.552;10.092;2024-02-21T03:59:18;101341.19;;;9.94;100.00
72285;BME280;60220;53.552;10.092;2024-02-21T04:01:47;101328.94;;;10.00;100.00
72285;BME280;60220;53.552;10.092;2024-02-21T04:04:17;101330.59;;;10.46;100.00
72285;BME280;60220;53.552;10.092;2024-02-21T04:06:47;101332.47;;;9.83;100.00
72285;BME280;60220;53.552;10.092;2024-02-21T04:09:17;101330.72;;;9.50;100.00
72285;BME280;60220;53.552;10.092;2024-02-21T04:11:44;101324.63;;;9.65;100.00
72285;BME280;60220;53.552;10.092;2024-02-21T04:14:13;101323.69;;;9.81;100.00
72285;BME280;60220;53.552;10.092;2024-02-21T04:16:39;101331.56;;;10.06;100.00
72285;BME280;60220;53.552;10.092;2024-02-21T04:19:08;101322.84;;;9.84;100.00
72285;BME280;60220;53.552;10.092;2024-02-21T04:21:35;101326.31;;;9.33;100.00
72285;BME280;60220;53.552;10.092;2024-02-21T04:24:02;101318.47;;;9.57;100.00
72285;BME280;60220;53.552;10.092;2024-02-21T04:26:32;101314.13;;;9.74;100.00
72285;BME280;60220;53.552;10.092;2024-02-21T04:28:58;101309.75;;;9.85;100.00
72285;BME280;60220;53.552;10.092;2024-02-21T04:31:25;101297.47;;;8.96;100.00
72285;BME280;60220;53.552;10.092;2024-02-21T04:33:52;101312.34;;;9.28;100.00
72285;BME280;60220;53.552;10.092;2024-02-21T04:36:18;101318.47;;;9.33;100.00
72285;BME280;60220;53.552;10.092;2024-02-21T04:38:45;101302.75;;;9.84;100.00
72285;BME280;60220;53.552;10.092;2024-02-21T04:41:14;101309.75;;;9.73;100.00
72285;BME280;60220;53.552;10.092;2024-02-21T04:43:42;101302.75;;;9.75;100.00
72285;BME280;60220;53.552;10.092;2024-02-21T04:46:08;101312.38;;;9.50;100.00
72285;BME280;60220;53.552;10.092;2024-02-21T04:48:35;101311.47;;;9.99;100.00
72285;BME280;60220;53.552;10.092;2024-02-21T04:51:02;101310.63;;;9.54;100.00
72285;BME280;60220;53.552;10.092;2024-02-21T04:53:31;101307.09;;;9.22;100.00
72285;BME280;60220;53.552;10.092;2024-02-21T04:55:58;101300.06;;;10.12;100.00
72285;BME280;60220;53.552;10.092;2024-02-21T04:58:25;101303.63;;;9.55;100.00
72285;BME280;60220;53.552;10.092;2024-02-21T05:00:53;101304.50;;;9.70;100.00
72285;BME280;60220;53.552;10.092;2024-02-21T05:03:20;101294.03;;;9.60;100.00
72285;BME280;60220;53.552;10.092;2024-02-21T05:05:47;101306.25;;;9.79;100.00
72285;BME280;60220;53.552;10.092;2024-02-21T05:08:16;101297.50;;;9.33;100.00
72285;BME280;60220;53.552;10.092;2024-02-21T05:10:42;101297.50;;;9.57;100.00
72285;BME280;60220;53.552;10.092;2024-02-21T05:13:09;101305.34;;;9.42;100.00
72285;BME280;60220;53.552;10.092;2024-02-21T05:15:35;101294.03;;;9.55;100.00
72285;BME280;60220;53.552;10.092;2024-02-21T05:18:06;101293.13;;;9.11;100.00
72285;BME280;60220;53.552;10.092;2024-02-21T05:20:32;101292.28;;;9.36;100.00
72285;BME280;60220;53.552;10.092;2024-02-21T05:22:59;101294.00;;;9.72;100.00
72285;BME280;60220;53.552;10.092;2024-02-21T05:25:26;101287.91;;;9.58;100.00
72285;BME280;60220;53.552;10.092;2024-02-21T05:27:52;101290.53;;;9.35;100.00
72285;BME280;60220;53.552;10.092;2024-02-21T05:30:21;101292.25;;;9.28;100.00
72285;BME280;60220;53.552;10.092;2024-02-21T05:32:47;101294.03;;;9.55;100.00
72285;BME280;60220;53.552;10.092;2024-02-21T05:35:15;101295.78;;;9.35;100.00
72285;BME280;60220;53.552;10.092;2024-02-21T05:37:44;101291.41;;;9.60;100.00
72285;BME280;60220;53.552;10.092;2024-02-21T05:40:12;101294.00;;;9.52;100.00
72285;BME280;60220;53.552;10.092;2024-02-21T05:42:39;101283.50;;;9.88;100.00
72285;BME280;60220;53.552;10.092;2024-02-21T05:45:06;101293.16;;;9.71;100.00
72285;BME280;60220;53.552;10.092;2024-02-21T05:47:33;101286.09;;;10.02;100.00
72285;BME280;60220;53.552;10.092;2024-02-21T05:49:59;101283.47;;;10.07;100.00
72285;BME280;60220;53.552;10.092;2024-02-21T05:52:27;101295.75;;;9.85;100.00
72285;BME280;60220;53.552;10.092;2024-02-21T05:54:56;101295.75;;;9.64;100.00
72285;BME280;60220;53.552;10.092;2024-02-21T05:57:23;101307.13;;;9.66;100.00
72285;BME280;60220;53.552;10.092;2024-02-21T05:59:49;101307.97;;;9.87;100.00
72285;BME280;60220;53.552;10.092;2024-02-21T06:02:16;101315.84;;;9.74;100.00
72285;BME280;60220;53.552;10.092;2024-02-21T06:04:43;101306.22;;;9.94;100.00
72285;BME280;60220;53.552;10.092;2024-02-21T06:07:10;101307.13;;;9.60;100.00
72285;BME280;60220;53.552;10.092;2024-02-21T06:09:37;101309.75;;;9.70;100.00
72285;BME280;60220;53.552;10.092;2024-02-21T06:12:04;101317.59;;;9.82;100.00
72285;BME280;60220;53.552;10.092;2024-02-21T06:14:33;101321.09;;;9.77;100.00
72285;BME280;60220;53.552;10.092;2024-02-21T06:17:00;101327.19;;;10.14;100.00
72285;BME280;60220;53.552;10.092;2024-02-21T06:19:29;101330.69;;;10.10;100.00
72285;BME280;60220;53.552;10.092;2024-02-21T06:21:55;101321.94;;;9.97;100.00
72285;BME280;60220;53.552;10.092;2024-02-21T06:24:22;101325.41;;;10.34;100.00
72285;BME280;60220;53.552;10.092;2024-02-21T06:26:50;101318.41;;;10.27;100.00
72285;BME280;60220;53.552;10.092;2024-02-21T06:29:17;101306.19;;;10.17;100.00
72285;BME280;60220;53.552;10.092;2024-02-21T06:31:46;101308.81;;;10.35;100.00
72285;BME280;60220;53.552;10.092;2024-02-21T06:34:12;101308.75;;;10.47;100.00
72285;BME280;60220;53.552;10.092;2024-02-21T06:36:39;101301.69;;;10.66;100.00
72285;BME280;60220;53.552;10.092;2024-02-21T06:39:08;101297.44;;;10.28;100.00
72285;BME280;60220;53.552;10.092;2024-02-21T06:41:38;101306.22;;;10.26;100.00
72285;BME280;60220;53.552;10.092;2024-02-21T06:44:07;101293.97;;;9.98;100.00
72285;BME280;60220;53.552;10.092;2024-02-21T06:46:36;101303.63;;;9.64;100.00
72285;BME280;60220;53.552;10.092;2024-02-21T06:49:03;101290.44;;;10.06;100.00
72285;BME280;60220;53.552;10.092;2024-02-21T06:51:31;101301.00;;;9.62;100.00
72285;BME280;60220;53.552;10.092;2024-02-21T06:54:00;101315.84;;;9.90;100.00
72285;BME280;60220;53.552;10.092;2024-02-21T06:56:27;101307.97;;;10.06;100.00
72285;BME280;60220;53.552;10.092;2024-02-21T06:58:54;101300.94;;;10.12;100.00
72285;BME280;60220;53.552;10.092;2024-02-21T07:01:22;101309.72;;;9.88;100.00
72285;BME280;60220;53.552;10.092;2024-02-21T07:03:49;101310.56;;;10.27;100.00
72285;BME280;60220;53.552;10.092;2024-02-21T07:06:18;101307.97;;;9.92;100.00
72285;BME280;60220;53.552;10.092;2024-02-21T07:08:45;101302.72;;;10.06;100.00
72285;BME280;60220;53.552;10.092;2024-02-21T07:11:11;101306.19;;;10.17;100.00
72285;BME280;60220;53.552;10.092;2024-02-21T07:13:38;101304.41;;;10.34;100.00
72285;BME280;60220;53.552;10.092;2024-02-21T07:16:07;101306.19;;;10.23;100.00
72285;BME280;60220;53.552;10.092;2024-02-21T07:18:37;101297.47;;;9.92;100.00
72285;BME280;60220;53.552;10.092;2024-02-21T07:21:06;101304.22;;;10.83;100.00
72285;BME280;60220;53.552;10.092;2024-02-21T07:23:35;101304.47;;;9.98;100.00
72285;BME280;60220;53.552;10.092;2024-02-21T07:26:02;101304.47;;;10.16;100.00
72285;BME280;60220;53.552;10.092;2024-02-21T07:28:29;101313.16;;;10.38;100.00
72285;BME280;60220;53.552;10.092;2024-02-21T07:30:55;101315.81;;;10.10;100.00
72285;BME280;60220;53.552;10.092;2024-02-21T07:33:22;101315.84;;;9.98;100.00
72285;BME280;60220;53.552;10.092;2024-02-21T07:35:50;101309.69;;;10.13;100.00
72285;BME280;60220;53.552;10.092;2024-02-21T07:38:17;101320.22;;;9.64;100.00
72285;BME280;60220;53.552;10.092;2024-02-21T07:40:44;101324.59;;;9.48;100.00
72285;BME280;60220;53.552;10.092;2024-02-21T07:43:11;101321.97;;;9.73;100.00
72285;BME280;60220;53.552;10.092;2024-02-21T07:45:37;101312.38;;;9.81;100.00
72285;BME280;60220;53.552;10.092;2024-02-21T07:48:05;101327.19;;;10.14;100.00
72285;BME280;60220;53.552;10.092;2024-02-21T07:50:31;101324.59;;;9.74;100.00
72285;BME280;60220;53.552;10.092;2024-02-21T07:52:59;101317.59;;;10.05;100.00
72285;BME280;60220;53.552;10.092;2024-02-21T07:55:26;101310.56;;;10.22;100.00
72285;BME280;60220;53.552;10.092;2024-02-21T07:57:53;101316.44;;;10.90;100.00
72285;BME280;60220;53.552;10.092;2024-02-21T08:00:20;101318.38;;;10.47;100.00
72285;BME280;60220;53.552;10.092;2024-02-21T08:02:47;101318.44;;;10.30;100.00
72285;BME280;60220;53.552;10.092;2024-02-21T08:05:17;101321.91;;;10.35;100.00
72285;BME280;60220;53.552;10.092;2024-02-21T08:07:43;101315.81;;;10.25;100.00
72285;BME280;60220;53.552;10.092;2024-02-21T08:10:11;101320.22;;;9.73;100.00
72285;BME280;60220;53.552;10.092;2024-02-21T08:12:40;101304.47;;;10.05;100.00
72285;BME280;60220;53.552;10.092;2024-02-21T08:15:09;101308.84;;;10.18;100.00
72285;BME280;60220;53.552;10.092;2024-02-21T08:17:37;101301.81;;;10.22;100.00
72285;BME280;60220;53.552;10.092;2024-02-21T08:20:05;101309.59;;;10.52;100.00
72285;BME280;60220;53.552;10.092;2024-02-21T08:22:31;101299.22;;;9.99;100.00
72285;BME280;60220;53.552;10.092;2024-02-21T08:24:58;101306.06;;;10.62;100.00
72285;BME280;60220;53.552;10.092;2024-02-21T08:27:26;101302.56;;;10.65;100.00
72285;BME280;60220;53.552;10.092;2024-02-21T08:29:52;101296.56;;;10.28;100.00
72285;BME280;60220;53.552;10.092;2024-02-21T08:32:21;101304.22;;;10.86;100.00
72285;BME280;60220;53.552;10.092;2024-02-21T08:34:48;101299.66;;;11.15;100.00
72285;BME280;60220;53.552;10.092;2024-02-21T08:37:15;101297.25;;;10.72;100.00
72285;BME280;60220;53.552;10.092;2024-02-21T08:39:42;101291.19;;;10.66;100.00
72285;BME280;60220;53.552;10.092;2024-02-21T08:42:08;101288.41;;;10.92;100.00
72285;BME280;60220;53.552;10.092;2024-02-21T08:44:39;101295.38;;;10.99;100.00
72285;BME280;60220;53.552;10.092;2024-02-21T08:47:06;101290.16;;;10.96;100.00
72285;BME280;60220;53.552;10.092;2024-02-21T08:49:34;101293.22;;;11.52;100.00
72285;BME280;60220;53.552;10.092;2024-02-21T08:52:01;101279.28;;;11.44;100.00
72285;BME280;60220;53.552;10.092;2024-02-21T08:54:28;101283.47;;;10.10;100.00
72285;BME280;60220;53.552;10.092;2024-02-21T08:56:55;101286.97;;;10.21;100.00
72285;BME280;60220;53.552;10.092;2024-02-21T08:59:24;101299.91;;;10.69;100.00
72285;BME280;60220;53.552;10.092;2024-02-21T09:01:52;101292.97;;;10.53;100.00
72285;BME280;60220;53.552;10.092;2024-02-21T09:04:19;101291.25;;;10.46;100.00
72285;BME280;60220;53.552;10.092;2024-02-21T09:06:46;101291.31;;;10.07;100.00
72285;BME280;60220;53.552;10.092;2024-02-21T09:09:12;101294.91;;;9.54;100.00
72285;BME280;60220;53.552;10.092;2024-02-21T09:11:42;101290.47;;;9.92;100.00
72285;BME280;60220;53.552;10.092;2024-02-21T09:14:08;101285.25;;;9.96;100.00
72285;BME280;60220;53.552;10.092;2024-02-21T09:16:35;101283.38;;;10.48;100.00
72285;BME280;60220;53.552;10.092;2024-02-21T09:19:03;101284.81;;;11.08;100.00
72285;BME280;60220;53.552;10.092;2024-02-21T09:21:29;101284.59;;;11.38;100.00
72285;BME280;60220;53.552;10.092;2024-02-21T09:23:56;101293.69;;;10.89;100.00
72285;BME280;60220;53.552;10.092;2024-02-21T09:26:23;101279.03;;;10.41;100.00
72285;BME280;60220;53.552;10.092;2024-02-21T09:28:49;101282.31;;;10.84;100.00
72285;BME280;60220;53.552;10.092;2024-02-21T09:31:18;101275.25;;;10.92;100.00
72285;BME280;60220;53.552;10.092;2024-02-21T09:33:45;101266.19;;;11.40;100.00
72285;BME280;60220;53.552;10.092;2024-02-21T09:36:13;101271.63;;;11.11;100.00
72285;BME280;60220;53.552;10.092;2024-02-21T09:38:40;101269.25;;;10.74;100.00
72285;BME280;60220;53.552;10.092;2024-02-21T09:41:15;101269.88;;;11.11;100.00
72285;BME280;60220;53.552;10.092;2024-02-21T09:43:43;101266.03;;;9.78;100.00
72285;BME280;60220;53.552;10.092;2024-02-21T09:46:14;101268.13;;;11.12;100.00
72285;BME280;60220;53.552;10.092;2024-02-21T09:48:50;101261.50;;;10.50;100.00
72285;BME280;60220;53.552;10.092;2024-02-21T09:51:23;101254.38;;;10.72;100.00
72285;BME280;60220;53.552;10.092;2024-02-21T09:53:50;101254.41;;;10.70;100.00
72285;BME280;60220;53.552;10.092;2024-02-21T09:56:17;101257.03;;;10.67;100.00
72285;BME280;60220;53.552;10.092;2024-02-21T09:58:44;101251.84;;;10.55;100.00
72285;BME280;60220;53.552;10.092;2024-02-21T10:01:10;101257.16;;;10.37;100.00
72285;BME280;60220;53.552;10.092;2024-02-21T10:03:37;101248.22;;;10.77;100.00
72285;BME280;60220;53.552;10.092;2024-02-21T10:06:04;101248.66;;;11.36;100.00
72285;BME280;60220;53.552;10.092;2024-02-21T10:08:32;101255.13;;;10.94;100.00
72285;BME280;60220;53.552;10.092;2024-02-21T10:10:58;101248.13;;;10.96;100.00
72285;BME280;60220;53.552;10.092;2024-02-21T10:13:29;101250.25;;;11.56;100.00
72285;BME280;60220;53.552;10.092;2024-02-21T10:16:04;101250.19;;;10.27;100.00
72285;BME280;60220;53.552;10.092;2024-02-21T10:18:31;101241.34;;;10.52;100.00
72285;BME280;60220;53.552;10.092;2024-02-21T10:21:02;101250.09;;;10.54;100.00
72285;BME280;60220;53.552;10.092;2024-02-21T10:23:28;101257.84;;;10.77;100.00
72285;BME280;60220;53.552;10.092;2024-02-21T10:26:06;101258.00;;;10.47;100.00
72285;BME280;60220;53.552;10.092;2024-02-21T10:28:35;101251.81;;;10.64;100.00
72285;BME280;60220;53.552;10.092;2024-02-21T10:31:01;101246.75;;;10.10;100.00
72285;BME280;60220;53.552;10.092;2024-02-21T10:33:28;101246.69;;;10.35;100.00
72285;BME280;60220;53.552;10.092;2024-02-21T10:36:06;101246.66;;;10.37;100.00
72285;BME280;60220;53.552;10.092;2024-02-21T10:38:34;101246.84;;;9.49;100.00
72285;BME280;60220;53.552;10.092;2024-02-21T10:41:06;101243.22;;;10.21;100.00
72285;BME280;60220;53.552;10.092;2024-02-21T10:43:38;101240.53;;;10.43;100.00
72285;BME280;60220;53.552;10.092;2024-02-21T10:46:06;101231.03;;;10.01;100.00
72285;BME280;60220;53.552;10.092;2024-02-21T10:48:41;101235.41;;;9.99;100.00
72285;BME280;60220;53.552;10.092;2024-02-21T10:51:16;101231.97;;;9.72;100.00
72285;BME280;60220;53.552;10.092;2024-02-21T10:53:47;101225.91;;;9.31;100.00
72285;BME280;60220;53.552;10.092;2024-02-21T10:56:26;101224.00;;;10.21;100.00
72285;BME280;60220;53.552;10.092;2024-02-21T10:58:54;101223.25;;;9.41;100.00
72285;BME280;60220;53.552;10.092;2024-02-21T11:01:23;101221.53;;;9.54;100.00
72285;BME280;60220;53.552;10.092;2024-02-21T11:03:53;101214.44;;;10.00;100.00
72285;BME280;60220;53.552;10.092;2024-02-21T11:06:21;101210.97;;;9.87;100.00
72285;BME280;60220;53.552;10.092;2024-02-21T11:08:59;101215.34;;;9.79;100.00
72285;BME280;60220;53.552;10.092;2024-02-21T11:11:29;101220.59;;;9.85;100.00
72285;BME280;60220;53.552;10.092;2024-02-21T11:14:04;101218.84;;;9.90;100.00
72285;BME280;60220;53.552;10.092;2024-02-21T11:16:35;101213.59;;;9.84;100.00
72285;BME280;60220;53.552;10.092;2024-02-21T11:19:06;101204.72;;;10.34;100.00
72285;BME280;60220;53.552;10.092;2024-02-21T11:21:34;101198.75;;;9.73;100.00
72285;BME280;60220;53.552;10.092;2024-02-21T11:24:01;101195.16;;;10.16;100.00
72285;BME280;60220;53.552;10.092;2024-02-21T11:26:30;101197.59;;;10.51;100.00
72285;BME280;60220;53.552;10.092;2024-02-21T11:28:57;101196.03;;;10.02;100.00
72285;BME280;60220;53.552;10.092;2024-02-21T11:31:25;101202.81;;;10.60;100.00
72285;BME280;60220;53.552;10.092;2024-02-21T11:33:53;101184.66;;;10.13;100.00
72285;BME280;60220;53.552;10.092;2024-02-21T11:36:24;101182.13;;;9.84;100.00
72285;BME280;60220;53.552;10.092;2024-02-21T11:38:51;101182.06;;;10.03;100.00
72285;BME280;60220;53.552;10.092;2024-02-21T11:41:18;101180.34;;;9.86;100.00
72285;BME280;60220;53.552;10.092;2024-02-21T11:43:50;101178.53;;;10.11;100.00
72285;BME280;60220;53.552;10.092;2024-02-21T11:46:17;101176.81;;;10.06;100.00
72285;BME280;60220;53.552;10.092;2024-02-21T11:48:44;101172.41;;;10.20;100.00
72285;BME280;60220;53.552;10.092;2024-02-21T11:51:21;101158.41;;;10.16;100.00
72285;BME280;60220;53.552;10.092;2024-02-21T11:53:48;101158.53;;;9.77;100.00
72285;BME280;60220;53.552;10.092;2024-02-21T11:56:15;101158.47;;;9.98;100.00
72285;BME280;60220;53.552;10.092;2024-02-21T11:58:41;101152.28;;;10.14;100.00
72285;BME280;60220;53.552;10.092;2024-02-21T12:01:12;101143.91;;;10.96;100.00
72285;BME280;60220;53.552;10.092;2024-02-21T12:03:39;101144.50;;;9.93;100.00
72285;BME280;60220;53.552;10.092;2024-02-21T12:06:06;101141.63;;;10.49;100.00
72285;BME280;60220;53.552;10.092;2024-02-21T12:08:41;101128.84;;;9.81;100.00
72285;BME280;60220;53.552;10.092;2024-02-21T12:11:20;101128.56;;;10.37;100.00
72285;BME280;60220;53.552;10.092;2024-02-21T12:13:47;101127.00;;;9.98;100.00
72285;BME280;60220;53.552;10.092;2024-02-21T12:16:16;101131.25;;;10.28;100.00
72285;BME280;60220;53.552;10.092;2024-02-21T12:18:44;101119.88;;;10.27;100.00
72285;BME280;60220;53.552;10.092;2024-02-21T12:21:13;101125.31;;;9.82;100.00
72285;BME280;60220;53.552;10.092;2024-02-21T12:23:44;101124.25;;;10.28;100.00
72285;BME280;60220;53.552;10.092;2024-02-21T12:26:12;101128.84;;;9.73;100.00
72285;BME280;60220;53.552;10.092;2024-02-21T12:28:39;101124.41;;;9.93;100.00
72285;BME280;60220;53.552;10.092;2024-02-21T12:31:06;101125.28;;;9.96;100.00
72285;BME280;60220;53.552;10.092;2024-02-21T12:33:33;101124.44;;;9.87;100.00
72285;BME280;60220;53.552;10.092;2024-02-21T12:36:00;101125.25;;;10.05;100.00
72285;BME280;60220;53.552;10.092;2024-02-21T12:38:27;101115.78;;;9.57;100.00